createdAt,value
2018-05-14T00:00:50.485Z,11.30
2018-05-14T00:03:19.462Z,11.30
2018-05-14T00:05:46.954Z,11.30
2018-05-14T00:08:15.199Z,11.40
2018-05-14T00:10:42.697Z,11.40
2018-05-14T00:13:10.181Z,11.40
2018-05-14T00:15:37.656Z,11.30
2018-05-14T00:18:05.150Z,11.30
2018-05-14T00:20:33.389Z,11.40
2018-05-14T00:23:00.903Z,11.40
2018-05-14T00:25:28.377Z,11.30
2018-05-14T00:27:56.185Z,11.10
2018-05-14T00:30:24.425Z,11.30
2018-05-14T00:32:51.900Z,11.30
2018-05-14T00:35:19.391Z,11.30
2018-05-14T00:37:46.873Z,11.30
2018-05-14T00:40:14.361Z,11.30
2018-05-14T00:42:41.832Z,11.40
2018-05-14T00:45:09.342Z,11.30
2018-05-14T00:47:36.817Z,11.20
2018-05-14T00:50:04.347Z,11.20
2018-05-14T00:52:31.836Z,11.10
2018-05-14T00:55:11.289Z,11.10
2018-05-14T00:57:38.785Z,11.10
2018-05-14T01:00:06.271Z,11.10
2018-05-14T01:02:33.773Z,11.20
2018-05-14T01:05:02.013Z,11.10
2018-05-14T01:07:29.489Z,11.10
2018-05-14T01:09:56.979Z,11.30
2018-05-14T01:12:24.462Z,11.30
2018-05-14T01:14:51.953Z,11.20
2018-05-14T01:17:19.445Z,11.20
2018-05-14T01:19:46.947Z,11.30
2018-05-14T01:22:14.421Z,11.20
2018-05-14T01:24:47.541Z,11.30
2018-05-14T01:27:15.797Z,11.30
2018-05-14T01:29:43.272Z,11.30
2018-05-14T01:32:11.569Z,11.20
2018-05-14T01:34:39.132Z,11.20
2018-05-14T01:37:06.642Z,11.10
2018-05-14T01:39:34.113Z,11.10
2018-05-14T01:42:02.381Z,11.20
2018-05-14T01:44:30.620Z,11.20
2018-05-14T01:46:58.113Z,11.20
2018-05-14T01:49:26.378Z,11.20
2018-05-14T01:51:53.857Z,11.20
2018-05-14T01:54:22.117Z,11.10
2018-05-14T01:56:50.357Z,11.10
2018-05-14T01:59:17.852Z,11.20
2018-05-14T02:01:46.430Z,11.20
2018-05-14T02:04:13.957Z,11.20
2018-05-14T02:06:41.445Z,11.20
2018-05-14T02:09:09.686Z,11.20
2018-05-14T02:11:37.178Z,11.20
2018-05-14T02:14:05.423Z,11.30
2018-05-14T02:16:32.920Z,11.30
2018-05-14T02:19:00.399Z,11.20
2018-05-14T02:21:27.877Z,11.20
2018-05-14T02:23:55.373Z,11.20
2018-05-14T02:26:23.618Z,11.20
2018-05-14T02:28:51.124Z,11.20
2018-05-14T02:31:18.597Z,11.10
2018-05-14T02:33:46.097Z,11.30
2018-05-14T02:36:13.568Z,11.20
2018-05-14T02:38:41.045Z,11.20
2018-05-14T02:41:08.553Z,11.10
2018-05-14T02:43:36.025Z,11.10
2018-05-14T02:46:03.513Z,11.10
2018-05-14T02:48:31.749Z,11.10
2018-05-14T02:51:00.749Z,11.10
2018-05-14T02:53:28.223Z,11.10
2018-05-14T02:55:56.465Z,11.10
2018-05-14T02:58:23.962Z,11.10
2018-05-14T03:00:52.206Z,11.00
2018-05-14T03:03:19.695Z,11.00
2018-05-14T03:05:47.173Z,11.10
2018-05-14T03:08:14.685Z,11.10
2018-05-14T03:10:42.944Z,11.10
2018-05-14T03:13:10.422Z,11.10
2018-05-14T03:15:38.681Z,11.10
2018-05-14T03:18:06.189Z,11.00
2018-05-14T03:20:33.685Z,11.00
2018-05-14T03:23:01.157Z,11.00
2018-05-14T03:25:28.654Z,11.00
2018-05-14T03:27:56.130Z,11.00
2018-05-14T03:30:23.601Z,11.10
2018-05-14T03:32:51.126Z,11.10
2018-05-14T03:35:18.634Z,11.10
2018-05-14T03:37:46.117Z,11.10
2018-05-14T03:40:14.364Z,11.10
2018-05-14T03:42:41.856Z,11.10
2018-05-14T03:45:09.330Z,11.10
2018-05-14T03:47:36.809Z,11.20
2018-05-14T03:50:04.302Z,11.10
2018-05-14T03:52:31.772Z,11.10
2018-05-14T03:55:00.013Z,11.20
2018-05-14T03:57:27.524Z,11.20
2018-05-14T04:00:06.833Z,11.20
2018-05-14T04:02:47.045Z,11.40
2018-05-14T04:05:17.147Z,11.30
2018-05-14T04:07:44.803Z,11.20
2018-05-14T04:10:12.345Z,11.30
2018-05-14T04:12:39.870Z,11.20
2018-05-14T04:15:08.345Z,11.20
2018-05-14T04:17:35.856Z,11.30
2018-05-14T04:20:03.421Z,11.20
2018-05-14T04:22:30.926Z,11.20
2018-05-14T04:24:59.165Z,11.20
2018-05-14T04:27:26.685Z,11.20
2018-05-14T04:29:54.161Z,11.30
2018-05-14T04:32:21.641Z,11.20
2018-05-14T04:34:49.137Z,11.20
2018-05-14T04:37:17.374Z,11.20
2018-05-14T04:39:44.873Z,11.20
2018-05-14T04:42:12.352Z,11.30
2018-05-14T04:44:39.842Z,11.20
2018-05-14T04:47:07.342Z,11.20
2018-05-14T04:49:34.826Z,11.20
2018-05-14T04:52:02.370Z,11.20
2018-05-14T04:54:29.849Z,11.20
2018-05-14T04:56:57.323Z,11.20
2018-05-14T04:59:24.813Z,11.30
2018-05-14T05:01:53.065Z,11.30
2018-05-14T05:04:20.567Z,11.30
2018-05-14T05:06:48.131Z,11.40
2018-05-14T05:09:15.606Z,11.40
2018-05-14T05:11:43.101Z,11.40
2018-05-14T05:14:10.596Z,11.30
2018-05-14T05:16:38.429Z,11.40
2018-05-14T05:19:06.675Z,11.40
2018-05-14T05:21:34.149Z,11.30
2018-05-14T05:24:01.647Z,11.40
2018-05-14T05:26:29.125Z,11.40
2018-05-14T05:28:56.630Z,11.40
2018-05-14T05:31:24.885Z,11.40
2018-05-14T05:33:52.365Z,11.40
2018-05-14T05:36:20.665Z,11.50
2018-05-14T05:38:48.133Z,11.50
2018-05-14T05:41:15.713Z,11.50
2018-05-14T05:43:43.213Z,11.50
2018-05-14T05:46:11.464Z,11.60
2018-05-14T05:48:38.960Z,11.60
2018-05-14T05:51:06.464Z,11.60
2018-05-14T05:53:34.275Z,11.60
2018-05-14T05:56:01.750Z,11.70
2018-05-14T05:58:29.240Z,11.70
2018-05-14T06:00:56.717Z,11.70
2018-05-14T06:03:24.993Z,11.80
2018-05-14T06:05:53.297Z,11.70
2018-05-14T06:08:20.790Z,11.70
2018-05-14T06:10:48.293Z,11.70
2018-05-14T06:13:16.564Z,11.80
2018-05-14T06:15:45.145Z,12.00
2018-05-14T06:18:13.394Z,12.00
2018-05-14T06:20:40.871Z,11.90
2018-05-14T06:23:09.130Z,12.00
2018-05-14T06:25:36.609Z,12.00
2018-05-14T06:28:04.894Z,12.00
2018-05-14T06:30:32.394Z,12.00
2018-05-14T06:32:59.896Z,12.00
2018-05-14T06:35:28.188Z,12.00
2018-05-14T06:37:55.848Z,12.00
2018-05-14T06:40:23.341Z,12.10
2018-05-14T06:42:50.818Z,12.20
2018-05-14T06:45:18.317Z,12.10
2018-05-14T06:47:45.808Z,12.20
2018-05-14T06:50:13.305Z,12.20
2018-05-14T06:52:40.789Z,12.20
2018-05-14T06:55:08.297Z,12.20
2018-05-14T06:57:35.788Z,12.30
2018-05-14T07:00:04.033Z,12.30
2018-05-14T07:02:31.541Z,12.30
2018-05-14T07:04:59.032Z,12.20
2018-05-14T07:07:26.577Z,12.30
2018-05-14T07:09:54.052Z,12.40
2018-05-14T07:12:21.528Z,12.30
2018-05-14T07:14:49.017Z,12.40
2018-05-14T07:17:16.498Z,12.30
2018-05-14T07:19:43.985Z,12.30
2018-05-14T07:22:11.461Z,12.30
2018-05-14T07:24:39.723Z,12.40
2018-05-14T07:27:07.201Z,12.40
2018-05-14T07:29:34.693Z,12.40
2018-05-14T07:32:02.214Z,12.40
2018-05-14T07:34:30.465Z,12.30
2018-05-14T07:36:58.002Z,12.30
2018-05-14T07:39:25.495Z,12.40
2018-05-14T07:41:53.009Z,12.40
2018-05-14T07:44:20.493Z,12.50
2018-05-14T07:46:47.986Z,12.50
2018-05-14T07:49:15.488Z,12.70
2018-05-14T07:51:42.961Z,12.70
2018-05-14T07:54:10.493Z,12.60
2018-05-14T07:56:37.977Z,12.60
2018-05-14T07:59:05.465Z,12.60
2018-05-14T08:01:33.181Z,12.60
2018-05-14T08:04:00.657Z,12.60
2018-05-14T08:06:28.152Z,12.70
2018-05-14T08:08:55.674Z,12.70
2018-05-14T08:11:23.937Z,12.90
2018-05-14T08:13:51.433Z,12.80
2018-05-14T08:16:18.905Z,12.90
2018-05-14T08:18:46.447Z,13.00
2018-05-14T08:21:13.921Z,12.90
2018-05-14T08:23:41.397Z,12.90
2018-05-14T08:26:08.884Z,12.90
2018-05-14T08:28:37.135Z,13.00
2018-05-14T08:31:04.635Z,13.00
2018-05-14T08:33:32.884Z,13.10
2018-05-14T08:36:00.361Z,13.10
2018-05-14T08:38:27.945Z,13.10
2018-05-14T08:40:55.425Z,13.10
2018-05-14T08:43:22.944Z,13.10
2018-05-14T08:45:50.441Z,13.30
2018-05-14T08:48:17.928Z,13.30
2018-05-14T08:50:45.421Z,13.40
2018-05-14T08:53:12.921Z,13.40
2018-05-14T08:55:40.422Z,13.40
2018-05-14T08:58:07.904Z,13.50
2018-05-14T09:00:35.405Z,13.60
2018-05-14T09:03:03.713Z,13.90
2018-05-14T09:05:31.167Z,13.90
2018-05-14T09:07:58.842Z,14.20
2018-05-14T09:10:26.346Z,14.30
2018-05-14T09:12:53.816Z,14.40
2018-05-14T09:15:21.308Z,14.20
2018-05-14T09:17:48.776Z,14.20
2018-05-14T09:20:16.280Z,14.40
2018-05-14T09:22:43.752Z,14.40
2018-05-14T09:25:11.985Z,14.40
2018-05-14T09:27:39.480Z,14.40
2018-05-14T09:30:07.717Z,14.60
2018-05-14T09:32:35.217Z,14.60
2018-05-14T09:35:03.459Z,14.70
2018-05-14T09:37:30.937Z,14.70
2018-05-14T09:39:59.189Z,14.60
2018-05-14T09:42:26.669Z,14.60
2018-05-14T09:44:55.309Z,14.70
2018-05-14T09:47:22.819Z,14.70
2018-05-14T09:49:51.064Z,15.00
2018-05-14T09:52:18.556Z,15.10
2018-05-14T09:54:46.058Z,15.50
2018-05-14T09:57:13.559Z,15.10
2018-05-14T09:59:41.812Z,15.30
2018-05-14T10:02:09.293Z,15.20
2018-05-14T10:04:37.560Z,15.10
2018-05-14T10:07:05.819Z,15.10
2018-05-14T10:09:33.343Z,15.10
2018-05-14T10:12:00.822Z,15.20
2018-05-14T10:14:28.330Z,15.40
2018-05-14T10:16:55.825Z,15.70
2018-05-14T10:19:23.300Z,16.20
2018-05-14T10:21:50.796Z,16.30
2018-05-14T10:24:18.289Z,15.80
2018-05-14T10:26:45.762Z,15.70
2018-05-14T10:29:14.765Z,15.90
2018-05-14T10:31:43.006Z,15.70
2018-05-14T10:34:10.512Z,15.70
2018-05-14T10:36:38.757Z,15.80
2018-05-14T10:39:06.233Z,15.70
2018-05-14T10:41:34.489Z,15.80
2018-05-14T10:44:01.965Z,15.80
2018-05-14T10:46:30.224Z,16.00
2018-05-14T10:48:57.714Z,16.00
2018-05-14T10:51:25.226Z,16.10
2018-05-14T10:53:52.710Z,16.50
2018-05-14T10:56:20.963Z,16.00
2018-05-14T10:58:48.729Z,16.00
2018-05-14T11:01:16.209Z,14.80
2018-05-14T11:03:44.450Z,16.20
2018-05-14T11:06:11.943Z,16.10
2018-05-14T11:08:40.182Z,16.80
2018-05-14T11:11:07.693Z,16.80
2018-05-14T11:13:35.168Z,16.70
2018-05-14T11:16:02.638Z,16.90
2018-05-14T11:18:30.125Z,16.90
2018-05-14T11:20:58.365Z,17.30
2018-05-14T11:23:25.861Z,17.20
2018-05-14T11:25:54.097Z,17.20
2018-05-14T11:28:21.601Z,17.20
2018-05-14T11:30:49.864Z,17.90
2018-05-14T11:33:18.114Z,18.00
2018-05-14T11:35:45.902Z,18.00
2018-05-14T11:38:14.145Z,18.00
2018-05-14T11:40:41.628Z,18.00
2018-05-14T11:43:09.885Z,17.60
2018-05-14T11:45:37.361Z,17.50
2018-05-14T11:48:05.621Z,18.00
2018-05-14T11:50:33.229Z,18.00
2018-05-14T11:53:00.714Z,18.50
2018-05-14T11:55:28.203Z,18.10
2018-05-14T11:57:56.472Z,18.00
2018-05-14T12:00:23.965Z,18.00
2018-05-14T12:02:51.543Z,18.80
2018-05-14T12:05:18.942Z,19.30
2018-05-14T12:07:47.200Z,19.30
2018-05-14T12:10:14.678Z,19.30
2018-05-14T12:12:42.935Z,20.00
2018-05-14T12:15:10.411Z,20.00
2018-05-14T12:17:38.660Z,19.60
2018-05-14T12:20:06.152Z,19.60
2018-05-14T12:22:34.400Z,19.30
2018-05-14T12:25:01.927Z,19.20
2018-05-14T12:27:29.398Z,20.60
2018-05-14T12:29:56.884Z,20.60
2018-05-14T12:32:25.144Z,20.90
2018-05-14T12:34:52.617Z,20.90
2018-05-14T12:37:21.195Z,22.00
2018-05-14T12:39:49.436Z,21.50
2018-05-14T12:42:16.929Z,21.40
2018-05-14T12:44:45.187Z,22.10
2018-05-14T12:47:12.702Z,22.00
2018-05-14T12:49:40.202Z,21.10
2018-05-14T12:52:07.678Z,21.40
2018-05-14T12:54:35.916Z,20.30
2018-05-14T12:57:03.404Z,20.20
2018-05-14T12:59:31.657Z,20.50
2018-05-14T13:01:59.153Z,20.40
2018-05-14T13:04:26.724Z,20.90
2018-05-14T13:06:54.283Z,21.10
2018-05-14T13:09:21.748Z,21.10
2018-05-14T13:11:49.225Z,21.50
2018-05-14T13:14:16.760Z,21.00
2018-05-14T13:16:44.243Z,21.70
2018-05-14T13:19:11.768Z,22.40
2018-05-14T13:21:39.265Z,22.10
2018-05-14T13:24:06.773Z,22.60
2018-05-14T13:26:34.281Z,22.60
2018-05-14T13:29:01.781Z,21.40
2018-05-14T13:31:29.262Z,21.90
2018-05-14T13:33:56.783Z,21.50
2018-05-14T13:36:25.026Z,22.50
2018-05-14T13:38:52.530Z,22.40
2018-05-14T13:41:20.017Z,23.30
2018-05-14T13:43:47.489Z,23.30
2018-05-14T13:46:14.985Z,23.40
2018-05-14T13:48:42.475Z,22.90
2018-05-14T13:51:09.973Z,22.30
2018-05-14T13:53:38.217Z,23.50
2018-05-14T13:56:05.692Z,23.50
2018-05-14T13:58:33.191Z,23.10
2018-05-14T14:01:00.662Z,23.20
2018-05-14T14:03:28.157Z,23.10
2018-05-14T14:05:55.633Z,22.70
2018-05-14T14:08:23.884Z,24.00
2018-05-14T14:10:51.398Z,23.90
2018-05-14T14:13:18.881Z,24.00
2018-05-14T14:15:46.431Z,24.00
2018-05-14T14:18:13.909Z,23.30
2018-05-14T14:20:41.399Z,23.10
2018-05-14T14:23:08.931Z,23.00
2018-05-14T14:25:36.405Z,22.80
2018-05-14T14:28:04.661Z,22.70
2018-05-14T14:30:32.143Z,22.70
2018-05-14T14:33:00.385Z,22.60
2018-05-14T14:35:27.872Z,22.50
2018-05-14T14:37:56.117Z,23.00
2018-05-14T14:40:23.613Z,23.00
2018-05-14T14:42:51.114Z,23.10
2018-05-14T14:45:18.595Z,23.50
2018-05-14T14:47:46.100Z,23.20
2018-05-14T14:50:13.573Z,23.30
2018-05-14T14:52:41.065Z,23.60
2018-05-14T14:55:08.544Z,23.50
2018-05-14T14:57:37.259Z,23.90
2018-05-14T15:00:04.744Z,23.90
2018-05-14T15:02:32.225Z,23.70
2018-05-14T15:05:01.225Z,24.00
2018-05-14T15:07:29.468Z,23.90
2018-05-14T15:09:56.969Z,23.90
2018-05-14T15:12:25.221Z,23.80
2018-05-14T15:14:53.464Z,23.70
2018-05-14T15:17:20.993Z,23.70
2018-05-14T15:19:48.469Z,24.00
2018-05-14T15:22:15.952Z,23.90
2018-05-14T15:24:43.489Z,24.10
2018-05-14T15:27:10.997Z,24.20
2018-05-14T15:29:39.315Z,24.10
2018-05-14T15:32:07.523Z,24.10
2018-05-14T15:34:36.529Z,24.00
2018-05-14T15:37:04.021Z,24.00
2018-05-14T15:39:31.513Z,24.20
2018-05-14T15:41:59.005Z,24.10
2018-05-14T15:44:27.263Z,24.00
2018-05-14T15:46:54.738Z,24.00
2018-05-14T15:49:22.992Z,24.00
2018-05-14T15:51:51.971Z,23.90
2018-05-14T15:54:19.461Z,23.90
2018-05-14T15:56:47.702Z,23.90
2018-05-14T15:59:15.173Z,23.80
2018-05-14T16:01:43.490Z,23.80
2018-05-14T16:04:11.689Z,24.00
2018-05-14T16:06:39.204Z,23.90
2018-05-14T16:09:06.707Z,24.00
2018-05-14T16:11:34.191Z,24.00
2018-05-14T16:14:01.678Z,23.90
2018-05-14T16:16:29.145Z,24.00
2018-05-14T16:18:56.660Z,23.80
2018-05-14T16:21:25.109Z,23.90
2018-05-14T16:23:52.592Z,24.00
2018-05-14T16:26:20.845Z,23.90
2018-05-14T16:28:48.337Z,23.90
2018-05-14T16:31:16.826Z,23.90
2018-05-14T16:33:45.067Z,23.90
2018-05-14T16:36:12.553Z,23.90
2018-05-14T16:38:40.805Z,24.00
2018-05-14T16:41:09.037Z,24.00
2018-05-14T16:43:36.588Z,24.00
2018-05-14T16:46:04.077Z,24.00
2018-05-14T16:48:31.540Z,24.10
2018-05-14T16:50:59.025Z,24.20
2018-05-14T16:53:27.261Z,24.10
2018-05-14T16:55:54.785Z,24.10
2018-05-14T16:58:22.254Z,24.20
2018-05-14T17:00:49.748Z,24.20
2018-05-14T17:03:17.242Z,24.20
2018-05-14T17:05:44.705Z,24.20
2018-05-14T17:08:12.197Z,24.20
2018-05-14T17:10:39.721Z,24.20
2018-05-14T17:13:07.192Z,24.10
2018-05-14T17:15:34.681Z,24.00
2018-05-14T17:18:02.609Z,23.90
2018-05-14T17:20:30.326Z,23.90
2018-05-14T17:22:58.557Z,23.70
2018-05-14T17:25:26.025Z,23.80
2018-05-14T17:27:53.518Z,23.70
2018-05-14T17:30:21.756Z,23.70
2018-05-14T17:32:49.243Z,23.70
2018-05-14T17:35:17.490Z,23.70
2018-05-14T17:37:44.956Z,23.70
2018-05-14T17:40:12.457Z,23.70
2018-05-14T17:42:39.925Z,23.80
2018-05-14T17:45:07.479Z,23.70
2018-05-14T17:47:34.941Z,23.70
2018-05-14T17:50:02.416Z,23.60
2018-05-14T17:52:29.897Z,23.50
2018-05-14T17:54:57.369Z,23.50
2018-05-14T17:57:25.621Z,23.30
2018-05-14T17:59:53.084Z,23.30
2018-05-14T18:02:20.558Z,23.30
2018-05-14T18:04:48.805Z,23.20
2018-05-14T18:07:16.282Z,23.10
2018-05-14T18:09:43.773Z,23.10
2018-05-14T18:12:11.292Z,23.00
2018-05-14T18:14:38.740Z,23.00
2018-05-14T18:17:06.265Z,23.00
2018-05-14T18:19:39.560Z,23.00
2018-05-14T18:22:13.002Z,23.00
2018-05-14T18:24:46.130Z,22.90
2018-05-14T18:27:13.613Z,22.90
2018-05-14T18:29:41.091Z,22.80
2018-05-14T18:32:08.581Z,22.80
2018-05-14T18:34:39.646Z,22.70
2018-05-14T18:37:07.142Z,22.70
2018-05-14T18:39:34.613Z,22.70
2018-05-14T18:42:02.097Z,22.50
2018-05-14T18:44:33.357Z,22.50
2018-05-14T18:47:00.913Z,22.40
2018-05-14T18:49:28.393Z,22.30
2018-05-14T18:51:55.954Z,22.20
2018-05-14T18:54:23.377Z,22.10
2018-05-14T18:56:50.845Z,22.00
2018-05-14T18:59:18.321Z,21.90
2018-05-14T19:01:45.810Z,21.80
2018-05-14T19:04:13.282Z,21.70
2018-05-14T19:06:41.545Z,21.40
2018-05-14T19:09:09.806Z,21.30
2018-05-14T19:11:42.869Z,21.30
2018-05-14T19:14:10.369Z,21.20
2018-05-14T19:16:44.382Z,21.00
2018-05-14T19:19:12.645Z,20.90
2018-05-14T19:21:41.284Z,20.70
2018-05-14T19:24:08.752Z,20.70
2018-05-14T19:26:36.264Z,20.60
2018-05-14T19:29:09.509Z,20.50
2018-05-14T19:31:37.011Z,20.40
2018-05-14T19:34:10.038Z,20.30
2018-05-14T19:36:37.541Z,20.30
2018-05-14T19:39:05.797Z,20.20
2018-05-14T19:41:33.327Z,20.10
2018-05-14T19:44:00.804Z,20.20
2018-05-14T19:46:28.257Z,20.10
2018-05-14T19:48:55.749Z,20.00
2018-05-14T19:51:23.985Z,19.90
2018-05-14T19:53:51.477Z,19.90
2018-05-14T19:56:18.966Z,19.90
2018-05-14T19:58:46.446Z,19.80
2018-05-14T20:01:13.940Z,19.80
2018-05-14T20:03:42.181Z,19.80
2018-05-14T20:06:09.653Z,19.80
2018-05-14T20:08:37.158Z,19.60
2018-05-14T20:11:04.625Z,19.60
2018-05-14T20:13:32.120Z,19.60
2018-05-14T20:15:59.602Z,19.50
2018-05-14T20:18:27.842Z,19.40
2018-05-14T20:20:55.334Z,19.40
2018-05-14T20:23:23.574Z,19.40
2018-05-14T20:25:51.085Z,19.40
2018-05-14T20:28:18.574Z,19.50
2018-05-14T20:30:46.065Z,19.40
2018-05-14T20:33:14.313Z,19.50
2018-05-14T20:35:41.798Z,19.50
2018-05-14T20:38:10.316Z,19.60
2018-05-14T20:40:37.801Z,19.60
2018-05-14T20:43:05.268Z,19.60
2018-05-14T20:45:32.762Z,19.60
2018-05-14T20:48:01.049Z,19.60
2018-05-14T20:50:28.567Z,19.50
2018-05-14T20:52:56.044Z,19.50
2018-05-14T20:55:24.325Z,19.30
2018-05-14T20:57:52.586Z,19.30
2018-05-14T21:00:20.817Z,19.20
2018-05-14T21:02:48.337Z,19.20
2018-05-14T21:05:15.802Z,19.10
2018-05-14T21:07:43.304Z,19.00
2018-05-14T21:10:10.793Z,19.00
2018-05-14T21:12:39.027Z,18.80
2018-05-14T21:15:06.545Z,18.80
2018-05-14T21:17:34.021Z,18.60
2018-05-14T21:20:01.581Z,18.30
2018-05-14T21:22:29.119Z,18.20
2018-05-14T21:24:56.597Z,18.20
2018-05-14T21:27:24.097Z,17.90
2018-05-14T21:29:52.341Z,17.60
2018-05-14T21:32:19.814Z,17.50
2018-05-14T21:34:47.306Z,17.40
2018-05-14T21:37:14.784Z,17.40
2018-05-14T21:39:42.278Z,17.50
2018-05-14T21:42:09.779Z,17.30
2018-05-14T21:44:37.264Z,17.20
2018-05-14T21:47:04.752Z,17.20
2018-05-14T21:49:33.492Z,17.20
2018-05-14T21:52:01.030Z,17.20
2018-05-14T21:54:28.517Z,17.10
2018-05-14T21:56:55.995Z,17.00
2018-05-14T21:59:23.485Z,17.00
2018-05-14T22:01:50.998Z,16.90
2018-05-14T22:04:18.469Z,16.90
2018-05-14T22:06:45.970Z,16.80
2018-05-14T22:09:13.443Z,16.80
2018-05-14T22:11:40.929Z,16.70
2018-05-14T22:14:08.433Z,16.60
2018-05-14T22:16:36.820Z,16.50
2018-05-14T22:19:07.393Z,16.40
2018-05-14T22:21:34.890Z,16.40
2018-05-14T22:24:02.382Z,16.30
2018-05-14T22:26:29.932Z,16.20
2018-05-14T22:28:57.437Z,16.10
2018-05-14T22:31:24.905Z,16.10
2018-05-14T22:33:52.393Z,16.00
2018-05-14T22:36:19.882Z,15.90
2018-05-14T22:38:47.361Z,15.90
2018-05-14T22:41:15.626Z,15.80
2018-05-14T22:43:43.103Z,15.80
2018-05-14T22:46:11.420Z,15.70
2018-05-14T22:48:38.911Z,15.70
2018-05-14T22:51:06.385Z,15.70
2018-05-14T22:53:33.881Z,15.50
2018-05-14T22:56:01.447Z,15.50
2018-05-14T22:58:28.922Z,15.40
2018-05-14T23:00:56.432Z,15.30
2018-05-14T23:03:24.676Z,15.30
2018-05-14T23:05:52.959Z,14.10
2018-05-14T23:08:20.433Z,15.20
2018-05-14T23:10:48.672Z,15.20
2018-05-14T23:13:16.182Z,15.20
2018-05-14T23:15:43.656Z,15.20
2018-05-14T23:18:11.172Z,15.10
2018-05-14T23:20:39.413Z,15.00
2018-05-14T23:23:06.956Z,15.00
2018-05-14T23:25:35.172Z,14.90
2018-05-14T23:28:02.649Z,14.90
2018-05-14T23:30:30.916Z,14.80
2018-05-14T23:32:59.157Z,14.80
2018-05-14T23:35:26.664Z,14.70
2018-05-14T23:37:54.157Z,14.70
2018-05-14T23:40:21.633Z,14.60
2018-05-14T23:42:49.130Z,14.60
2018-05-14T23:45:16.625Z,14.60
2018-05-14T23:47:44.109Z,14.50
2018-05-14T23:50:11.605Z,14.40
2018-05-14T23:52:39.085Z,14.40
2018-05-14T23:55:06.601Z,14.40
2018-05-14T23:57:34.841Z,14.40
